In Rescue
 
Open Full Screen Window  High Contrast Mode
Wind Gusting 00 knots
05
May 13, 2021 10:34 AM EDT
Weather Information
Wind Direction
  310 °
Wind Speed
  05 kt (6 mph)
Wind Gust
  00 kt (0 mph)
Altimeter
30.40 in
Visibility
10 SM
Temperature
16° C
61° F
Dewpoint
-02° C
28° F
Humidity
29%
Sky Condition
Clear
VFR

METAR KCFS 131434Z AUTO 31005KT 10SM CLR 16/M02 A3040 RMK AO2 T01591022

FAA Disclaimer: The data displayed is for advisory purposes only and is not to be used for flight planning or operations.